Time;durP1;ratioP1;P1;durP2;ratioP2;P2;SDS_P1;SDS_P2;PMS_P1;PMS_P2;Temp;Humidity;BMP_temperature;BMP_pressure;BME280_temperature;BME280_humidity;BME280_pressure;Samples;Min_cycle;Max_cycle;Signal;HPM_P1;HPM_P2
2020/12/24 00:00:54;;;;;;;54.73;24.27;;;;;;;2.13;96.98;99061.24;1726058;83;21590;-73
2020/12/24 00:03:21;;;;;;;53.33;23.20;;;;;;;2.06;97.16;99061.38;1725930;83;21180;-72
2020/12/24 00:05:49;;;;;;;43.30;21.93;;;;;;;2.07;97.30;99061.84;1725840;83;21334;-72
2020/12/24 00:08:17;;;;;;;43.50;23.07;;;;;;;2.05;97.13;99058.34;1726372;83;21140;-72
2020/12/24 00:10:45;;;;;;;43.30;22.98;;;;;;;1.94;96.90;99059.53;1726065;83;21152;-71
2020/12/24 00:13:12;;;;;;;43.05;21.93;;;;;;;1.83;97.06;99060.69;1726468;83;21290;-72
2020/12/24 00:15:40;;;;;;;49.48;21.87;;;;;;;1.80;97.38;99061.82;1726134;83;21160;-73
2020/12/24 00:18:11;;;;;;;39.00;19.17;;;;;;;1.66;97.38;99058.23;1725403;83;21151;-73
2020/12/24 00:20:39;;;;;;;48.40;21.82;;;;;;;1.64;97.93;99054.73;1726221;83;21707;-74
2020/12/24 00:23:06;;;;;;;41.08;20.68;;;;;;;1.68;98.05;99053.20;1710402;84;21186;-72
2020/12/24 00:25:33;;;;;;;54.40;22.42;;;;;;;1.61;97.80;99048.64;1710629;84;21133;-73
2020/12/24 00:28:01;;;;;;;42.78;18.85;;;;;;;1.47;97.93;99046.30;1710489;84;21267;-73
2020/12/24 00:30:29;;;;;;;52.55;21.23;;;;;;;1.44;98.33;99046.15;1710435;84;21631;-73
2020/12/24 00:32:57;;;;;;;39.70;20.43;;;;;;;1.38;98.42;99043.33;1710458;84;21330;-72
2020/12/24 00:35:24;;;;;;;37.75;18.85;;;;;;;1.35;98.75;99043.19;1710594;83;21196;-72
2020/12/24 00:37:52;;;;;;;43.78;21.02;;;;;;;1.34;99.19;99038.88;1723480;83;21176;-72
2020/12/24 00:40:19;;;;;;;45.33;19.77;;;;;;;1.38;99.48;99047.14;1723412;83;21668;-72
2020/12/24 00:42:47;;;;;;;46.02;21.57;;;;;;;1.45;99.57;99045.74;1730773;83;21167;-73
2020/12/24 00:45:14;;;;;;;45.15;19.60;;;;;;;1.57;99.73;99046.74;1728804;83;21165;-72
2020/12/24 00:47:42;;;;;;;42.88;20.80;;;;;;;1.60;99.32;99048.16;1722229;82;21132;-72
2020/12/24 00:50:10;;;;;;;44.67;21.97;;;;;;;1.64;99.44;99053.88;1723387;83;21221;-71
2020/12/24 00:52:38;;;;;;;42.73;21.07;;;;;;;1.77;99.58;99061.28;1700855;83;21165;-72
2020/12/24 00:55:07;;;;;;;39.67;21.55;;;;;;;1.89;99.47;99062.27;1705974;83;21175;-72
2020/12/24 00:57:35;;;;;;;49.35;22.70;;;;;;;1.99;99.19;99058.48;1728618;82;21328;-72
2020/12/24 01:00:06;;;;;;;49.40;21.48;;;;;;;2.11;99.08;99061.56;1722330;83;21725;-72
2020/12/24 01:02:35;;;;;;;;;;;;;;;2.15;98.46;99064.73;1725660;83;21180;-72
2020/12/24 01:05:06;;;;;;;41.98;22.22;;;;;;;2.15;98.42;99065.59;1723427;83;20497;-73
2020/12/24 01:07:34;;;;;;;39.60;21.77;;;;;;;2.12;98.13;99057.83;1723461;83;21298;-72
2020/12/24 01:10:08;;;;;;;50.55;22.80;;;;;;;2.18;98.43;99054.27;1730729;83;21175;-71
2020/12/24 01:12:37;;;;;;;46.40;22.80;;;;;;;2.26;98.24;99058.44;1728853;83;21563;-72
2020/12/24 01:15:08;;;;;;;55.80;23.85;;;;;;;2.29;98.06;99064.97;1722335;83;21605;-73
2020/12/24 01:17:37;;;;;;;63.87;23.75;;;;;;;2.35;97.97;99071.60;1722120;82;21752;-72
2020/12/24 01:20:07;;;;;;;45.15;22.85;;;;;;;2.38;97.77;99074.28;1722349;82;21551;-72
2020/12/24 01:22:35;;;;;;;44.50;22.07;;;;;;;2.41;97.59;99069.72;1723820;82;21199;-73
2020/12/24 01:25:04;;;;;;;44.50;21.10;;;;;;;2.43;97.53;99060.48;1725071;82;21562;-72
2020/12/24 01:27:32;;;;;;;45.35;21.73;;;;;;;2.48;97.47;99064.52;1733548;83;21289;-72
2020/12/24 01:30:00;;;;;;;55.28;23.90;;;;;;;2.55;97.26;99067.41;1736241;83;21136;-73
2020/12/24 01:32:29;;;;;;;43.75;21.60;;;;;;;2.60;96.81;99063.79;1736154;83;21598;-73
2020/12/24 01:34:57;;;;;;;47.05;20.50;;;;;;;2.61;96.65;99059.15;1736123;83;21179;-72
2020/12/24 01:37:25;;;;;;;42.10;21.00;;;;;;;2.58;96.49;99062.44;1736436;83;21187;-73
2020/12/24 01:39:53;;;;;;;46.58;21.73;;;;;;;2.55;96.27;99058.48;1736071;83;21191;-73
2020/12/24 01:42:21;;;;;;;39.03;21.35;;;;;;;2.55;96.41;99058.48;1736414;83;21159;-72
2020/12/24 01:44:50;;;;;;;46.40;22.90;;;;;;;2.53;96.23;99049.90;1736190;83;21147;-72
2020/12/24 01:47:19;;;;;;;47.88;21.77;;;;;;;2.56;96.28;99044.06;1736336;83;21131;-72
2020/12/24 01:49:47;;;;;;;51.45;22.30;;;;;;;2.56;95.94;99046.20;1736402;83;21191;-72
2020/12/24 01:52:37;;;;;;;44.73;20.05;;;;;;;2.50;95.89;99056.55;1736133;83;21204;-72
2020/12/24 01:55:11;;;;;;;40.85;19.82;;;;;;;2.50;95.81;99052.31;1736144;83;21135;-71
2020/12/24 01:57:40;;;;;;;38.53;20.60;;;;;;;2.39;95.73;99050.58;1736140;83;21171;-72
2020/12/24 02:00:11;;;;;;;35.78;20.20;;;;;;;2.42;96.19;99048.94;1736099;83;21192;-72
2020/12/24 02:02:40;;;;;;;49.77;20.55;;;;;;;2.47;96.07;99047.47;1736333;83;21289;-72
2020/12/24 02:05:08;;;;;;;47.98;20.10;;;;;;;2.49;95.83;99048.00;1736253;83;21151;-73
2020/12/24 02:07:36;;;;;;;40.48;20.08;;;;;;;2.48;95.66;99046.69;1736336;83;21171;-72
2020/12/24 02:10:04;;;;;;;34.23;17.55;;;;;;;2.33;95.44;99053.23;1736238;83;21605;-72
2020/12/24 02:12:31;;;;;;;45.75;17.50;;;;;;;2.26;95.69;99048.26;1738502;83;21207;-71
2020/12/24 02:14:59;;;;;;;41.28;16.20;;;;;;;2.19;95.75;99042.45;1737920;83;21175;-71
2020/12/24 02:17:26;;;;;;;48.10;18.70;;;;;;;2.11;95.85;99041.20;1737027;83;21159;-72
2020/12/24 02:19:54;;;;;;;39.18;18.30;;;;;;;2.03;96.04;99048.48;1737081;83;21185;-71
2020/12/24 02:22:22;;;;;;;34.48;17.37;;;;;;;1.93;95.95;99048.48;1736786;82;21349;-72
2020/12/24 02:24:50;;;;;;;33.65;17.15;;;;;;;1.82;96.43;99047.09;1736958;83;21290;-71
2020/12/24 02:27:18;;;;;;;35.50;16.30;;;;;;;1.80;96.88;99040.20;1737133;83;21290;-72
2020/12/24 02:29:45;;;;;;;35.73;16.57;;;;;;;1.72;96.67;99033.48;1736416;83;21586;-72
2020/12/24 02:32:13;;;;;;;39.80;17.05;;;;;;;1.61;97.05;99030.84;1736659;83;21160;-72
2020/12/24 02:34:40;;;;;;;28.60;13.98;;;;;;;1.61;97.43;99035.52;1736516;83;21286;-71
2020/12/24 02:37:10;;;;;;;33.20;15.70;;;;;;;1.60;97.55;99040.52;1736317;83;21298;-72
2020/12/24 02:39:37;;;;;;;33.02;16.30;;;;;;;1.56;97.60;99036.11;1736547;83;21581;-71
2020/12/24 02:42:05;;;;;;;31.82;15.63;;;;;;;1.59;98.09;99032.44;1736449;83;21183;-71
2020/12/24 02:44:32;;;;;;;36.20;15.75;;;;;;;1.60;98.03;99031.22;1736602;83;21569;-71
2020/12/24 02:47:00;;;;;;;33.30;14.83;;;;;;;1.59;98.05;99034.98;1736234;83;21159;-71
2020/12/24 02:49:28;;;;;;;29.35;15.83;;;;;;;1.57;98.20;99039.11;1736290;83;21172;-71
2020/12/24 02:51:56;;;;;;;33.00;17.62;;;;;;;1.54;98.34;99045.33;1736444;83;21171;-71
2020/12/24 02:54:23;;;;;;;32.75;16.55;;;;;;;1.55;98.44;99044.52;1736257;83;21155;-71
2020/12/24 02:56:51;;;;;;;34.73;17.42;;;;;;;1.67;98.79;99048.92;1736390;83;21285;-71
2020/12/24 02:59:19;;;;;;;34.03;16.52;;;;;;;1.82;98.98;99046.23;1736434;83;21696;-71
2020/12/24 03:01:47;;;;;;;40.20;16.35;;;;;;;1.89;98.50;99044.45;1736187;83;21183;-72
2020/12/24 03:04:15;;;;;;;34.40;16.15;;;;;;;1.97;98.54;99044.81;1736620;83;21172;-72
2020/12/24 03:06:43;;;;;;;30.80;16.62;;;;;;;1.93;97.91;99049.77;1736254;83;21329;-71
2020/12/24 03:09:12;;;;;;;30.97;16.23;;;;;;;1.88;98.04;99043.96;1736302;83;21151;-72
2020/12/24 03:11:50;;;;;;;34.43;15.65;;;;;;;1.85;98.13;99039.60;1736221;83;21622;-72
2020/12/24 03:14:19;;;;;;;31.48;14.85;;;;;;;1.83;98.21;99038.69;1736333;83;21310;-71
2020/12/24 03:16:47;;;;;;;37.05;16.67;;;;;;;1.77;97.92;99029.48;1736236;83;21128;-71
2020/12/24 03:19:15;;;;;;;32.25;16.10;;;;;;;1.61;98.06;99032.98;1739352;82;21528;-71
2020/12/24 03:21:42;;;;;;;35.23;16.27;;;;;;;1.48;98.38;99031.52;1750789;81;21326;-71
2020/12/24 03:24:10;;;;;;;42.23;17.52;;;;;;;1.44;98.72;99027.48;1733881;83;21136;-70
2020/12/24 03:26:38;;;;;;;37.73;17.10;;;;;;;1.44;99.10;99032.16;1733596;83;21228;-70
2020/12/24 03:29:06;;;;;;;34.20;16.12;;;;;;;1.45;99.25;99026.30;1736184;82;21151;-70
2020/12/24 03:31:35;;;;;;;37.10;17.45;;;;;;;1.51;99.41;99022.77;1736166;83;21638;-68
2020/12/24 03:34:03;;;;;;;32.67;16.97;;;;;;;1.49;99.16;99019.27;1736438;83;21693;-70
2020/12/24 03:36:31;;;;;;;32.15;15.83;;;;;;;1.42;99.19;99028.67;1736182;83;21187;-66
2020/12/24 03:38:58;;;;;;;33.15;16.42;;;;;;;1.35;99.37;99022.84;1736393;83;21136;-66
2020/12/24 03:41:26;;;;;;;36.35;16.55;;;;;;;1.31;99.57;99022.21;1736329;83;21179;-66
2020/12/24 03:43:53;;;;;;;38.58;17.62;;;;;;;1.27;99.72;99019.03;1736254;83;21127;-67
2020/12/24 03:46:21;;;;;;;29.95;15.70;;;;;;;1.21;100.00;99012.39;1736369;83;21159;-67
2020/12/24 03:48:49;;;;;;;35.60;17.65;;;;;;;1.18;100.00;99007.17;1736194;83;21163;-69
2020/12/24 03:51:17;;;;;;;31.00;14.85;;;;;;;1.16;100.00;99008.35;1736244;83;21171;-67
2020/12/24 03:53:44;;;;;;;32.85;17.12;;;;;;;1.12;100.00;99007.75;1736349;83;21175;-67
2020/12/24 03:56:12;;;;;;;29.35;15.53;;;;;;;1.11;100.00;99000.03;1736330;83;21151;-71
2020/12/24 03:58:40;;;;;;;37.25;17.57;;;;;;;1.11;100.00;99003.45;1739021;81;21169;-68
2020/12/24 04:01:09;;;;;;;34.53;15.40;;;;;;;1.08;100.00;98994.00;1750799;82;21294;-68
2020/12/24 04:03:37;;;;;;;33.55;16.30;;;;;;;1.05;100.00;98995.53;1707060;83;21171;-66
2020/12/24 04:06:05;;;;;;;30.80;16.57;;;;;;;1.00;100.00;98990.22;1739213;82;21596;-68
2020/12/24 04:08:33;;;;;;;33.65;15.90;;;;;;;1.04;100.00;98988.31;1750824;82;21156;-69
2020/12/24 04:11:01;;;;;;;28.25;14.90;;;;;;;1.08;100.00;98994.00;1735202;83;21285;-67
2020/12/24 04:13:33;;;;;;;31.15;15.83;;;;;;;1.15;100.00;98999.41;1741157;81;21161;-68
2020/12/24 04:16:13;;;;;;;29.82;13.35;;;;;;;1.14;100.00;98990.02;1750914;82;21156;-67
2020/12/24 04:18:41;;;;;;;31.65;16.55;;;;;;;1.33;100.00;98987.56;1733641;83;21175;-67
2020/12/24 04:21:09;;;;;;;25.65;14.47;;;;;;;2.16;100.00;98988.44;1733860;83;21270;-65
2020/12/24 04:23:36;;;;;;;34.10;16.25;;;;;;;2.24;100.00;98987.89;1739333;81;21136;-69
2020/12/24 04:26:04;;;;;;;29.85;15.32;;;;;;;1.98;99.08;98973.59;1750875;81;21614;-65
2020/12/24 04:28:33;;;;;;;30.08;15.68;;;;;;;1.82;99.24;98969.50;1736584;81;21168;-66
2020/12/24 04:31:04;;;;;;;31.65;14.78;;;;;;;1.69;99.57;98974.42;1725375;83;21293;-64
2020/12/24 04:33:32;;;;;;;32.20;16.52;;;;;;;1.57;99.52;98984.43;1739609;82;21145;-64
2020/12/24 04:36:00;;;;;;;34.50;16.55;;;;;;;1.44;99.69;98987.66;1750989;81;21193;-68
2020/12/24 04:38:28;;;;;;;31.68;15.90;;;;;;;1.32;99.88;98985.80;1736186;81;21157;-65
2020/12/24 04:40:58;;;;;;;30.43;14.85;;;;;;;1.21;100.00;98980.22;1725255;83;21306;-64
2020/12/24 04:43:27;;;;;;;31.10;15.85;;;;;;;1.14;100.00;98976.03;1739160;82;21121;-66
2020/12/24 04:45:56;;;;;;;34.10;14.30;;;;;;;1.05;100.00;98980.28;1750986;81;21163;-67
2020/12/24 04:48:25;;;;;;;27.70;15.35;;;;;;;0.95;100.00;98972.61;1733568;83;21165;-65
2020/12/24 04:50:54;;;;;;;29.35;13.95;;;;;;;0.91;100.00;98969.44;1739197;82;21153;-67
2020/12/24 04:53:21;;;;;;;24.77;12.95;;;;;;;0.93;100.00;98973.33;1750856;82;21313;-65
2020/12/24 04:55:50;;;;;;;26.40;13.10;;;;;;;0.89;100.00;98969.78;1733539;83;21151;-68
2020/12/24 04:58:18;;;;;;;28.35;14.85;;;;;;;0.89;100.00;98972.33;1733473;83;21314;-67
2020/12/24 05:00:47;;;;;;;35.50;16.67;;;;;;;0.90;100.00;98974.45;1706175;83;21290;-65
2020/12/24 05:03:15;;;;;;;29.60;15.32;;;;;;;0.91;100.00;98975.78;1739084;82;21176;-65
2020/12/24 05:05:44;;;;;;;31.27;16.52;;;;;;;0.94;100.00;98975.96;1725220;83;21202;-65
2020/12/24 05:08:12;;;;;;;30.95;14.70;;;;;;;1.02;100.00;98978.47;1725423;83;21191;-63
2020/12/24 05:10:40;;;;;;;30.12;16.20;;;;;;;1.11;100.00;98979.70;1725228;83;21180;-67
2020/12/24 05:13:17;;;;;;;29.37;15.83;;;;;;;1.19;100.00;98972.91;1698211;83;21160;-67
2020/12/24 05:15:45;;;;;;;26.25;14.07;;;;;;;1.26;100.00;98980.45;1725865;83;21163;-69
2020/12/24 05:18:23;;;;;;;31.05;14.65;;;;;;;1.30;100.00;98979.80;1725831;83;21363;-69
2020/12/24 05:20:51;;;;;;;26.57;14.78;;;;;;;1.26;100.00;98980.03;1725990;83;21311;-66
2020/12/24 05:23:21;;;;;;;29.95;15.43;;;;;;;1.28;100.00;98975.04;1718958;83;21729;-66
2020/12/24 05:25:49;;;;;;;29.12;14.50;;;;;;;1.33;100.00;98975.27;1710620;84;21583;-65
2020/12/24 05:28:26;;;;;;;32.45;16.12;;;;;;;1.39;100.00;98980.63;1710573;84;21210;-69
2020/12/24 05:30:55;;;;;;;30.20;15.78;;;;;;;1.41;100.00;98977.36;1710528;84;21162;-66
2020/12/24 05:33:33;;;;;;;36.45;16.32;;;;;;;1.44;100.00;98975.36;1710400;84;21165;-65
2020/12/24 05:36:22;;;;;;;29.25;15.75;;;;;;;1.47;100.00;98981.85;1710414;84;21180;-67
2020/12/24 05:38:51;;;;;;;34.35;17.07;;;;;;;1.49;100.00;98979.85;1710466;84;21160;-66
2020/12/24 05:41:34;;;;;;;37.35;17.57;;;;;;;1.49;100.00;98977.31;1710383;84;21160;-68
2020/12/24 05:44:11;;;;;;;32.98;15.80;;;;;;;1.47;100.00;98989.48;1710550;84;21331;-67
2020/12/24 05:46:44;;;;;;;42.15;18.42;;;;;;;1.52;100.00;98995.25;1710552;84;21295;-69
2020/12/24 05:49:20;;;;;;;35.83;17.92;;;;;;;1.57;100.00;98989.52;1710668;84;21173;-69
2020/12/24 05:51:58;;;;;;;47.00;17.62;;;;;;;1.65;100.00;98994.15;1638967;84;21678;-69
2020/12/24 05:54:30;;;;;;;37.00;19.02;;;;;;;1.69;100.00;98994.78;1684270;84;21626;-70
2020/12/24 05:56:59;;;;;;;;;;;;;;;1.73;100.00;98983.05;1713232;84;21240;-71
2020/12/24 05:59:31;;;;;;;35.55;17.77;;;;;;;1.77;100.00;98982.41;1710492;84;20153;-68
2020/12/24 06:02:16;;;;;;;;;;;;;;;1.69;100.00;98969.74;1713159;84;21766;-67
2020/12/24 06:04:48;;;;;;;30.60;15.53;;;;;;;1.69;100.00;98966.80;1710507;83;20248;-68
2020/12/24 06:07:24;;;;;;;33.80;16.48;;;;;;;1.70;100.00;98961.30;1723503;83;21180;-67
2020/12/24 06:09:54;;;;;;;29.07;14.53;;;;;;;1.59;100.00;98953.59;1723202;83;21160;-66
2020/12/24 06:12:27;;;;;;;31.05;14.68;;;;;;;1.45;100.00;98953.83;1730813;83;21176;-63
2020/12/24 06:15:01;;;;;;;31.73;16.60;;;;;;;1.37;100.00;98951.70;1728598;83;21169;-61
2020/12/24 06:17:30;;;;;;;30.20;14.10;;;;;;;1.36;100.00;98952.52;1722096;82;21164;-61
2020/12/24 06:19:58;;;;;;;26.70;14.23;;;;;;;1.45;100.00;98957.64;1722338;83;21175;-62
2020/12/24 06:22:27;;;;;;;32.73;16.23;;;;;;;1.52;100.00;98958.38;1723422;83;21179;-61
2020/12/24 06:24:58;;;;;;;30.62;14.80;;;;;;;1.45;100.00;98958.91;1733352;83;21337;-62
2020/12/24 06:27:52;;;;;;;27.50;15.20;;;;;;;1.48;100.00;98957.78;1736248;83;21182;-65
2020/12/24 06:30:25;;;;;;;30.60;14.80;;;;;;;1.51;100.00;98960.86;1736487;83;21179;-62
2020/12/24 06:33:00;;;;;;;31.65;14.33;;;;;;;1.51;100.00;98941.39;1834885;77;22156;-58
2020/12/24 06:35:39;;;;;;;29.10;14.03;;;;;;;1.48;100.00;98952.70;1728965;82;21157;-61
2020/12/24 06:38:11;;;;;;;29.48;15.45;;;;;;;1.46;100.00;98947.06;1744763;81;21171;-61
2020/12/24 06:40:40;;;;;;;29.18;14.05;;;;;;;1.37;100.00;98938.59;1729030;82;21575;-64
2020/12/24 06:43:09;;;;;;;28.55;13.88;;;;;;;1.35;100.00;98950.76;1744917;81;21178;-61
2020/12/24 06:45:39;;;;;;;25.82;14.15;;;;;;;1.33;100.00;98953.25;1728855;82;21152;-61
2020/12/24 06:48:26;;;;;;;29.00;15.40;;;;;;;1.32;100.00;98946.81;1744707;82;21305;-61
2020/12/24 06:51:02;;;;;;;34.75;15.40;;;;;;;1.32;100.00;98942.99;1728922;81;21145;-61
2020/12/24 06:53:36;;;;;;;30.17;14.07;;;;;;;1.40;100.00;98941.67;1744846;82;21374;-61
2020/12/24 06:56:27;;;;;;;26.82;13.50;;;;;;;1.44;100.00;98937.22;1728867;81;21544;-61
2020/12/24 06:59:04;;;;;;;30.02;14.20;;;;;;;1.40;100.00;98934.94;1756361;81;21162;-61
2020/12/24 07:01:35;;;;;;;28.83;13.22;;;;;;;1.36;100.00;98938.13;1758637;81;21291;-60
2020/12/24 07:04:13;;;;;;;30.97;15.93;;;;;;;1.31;100.00;98939.59;1739700;81;21595;-62
2020/12/24 07:06:49;;;;;;;28.52;14.38;;;;;;;1.15;100.00;98934.19;1739289;81;22361;-62
2020/12/24 07:09:33;;;;;;;31.85;16.17;;;;;;;1.06;100.00;98938.81;1739529;82;21722;-62
2020/12/24 07:12:01;;;;;;;32.23;15.48;;;;;;;0.94;100.00;98939.49;1739630;82;21165;-62
2020/12/24 07:14:34;;;;;;;31.37;14.58;;;;;;;0.89;100.00;98933.31;1740691;81;21149;-63
2020/12/24 07:17:15;;;;;;;30.95;15.08;;;;;;;0.88;100.00;98942.61;1759756;81;21142;-62
2020/12/24 07:19:49;;;;;;;32.08;15.93;;;;;;;0.94;100.00;98935.31;1760046;81;21712;-62
2020/12/24 07:22:18;;;;;;;33.38;14.98;;;;;;;0.96;100.00;98932.83;1759914;81;21169;-62
2020/12/24 07:24:50;;;;;;;28.62;14.10;;;;;;;0.91;100.00;98919.89;1759840;81;21160;-62
2020/12/24 07:27:17;;;;;;;30.20;15.28;;;;;;;0.89;100.00;98918.08;1763808;81;21153;-63
2020/12/24 07:29:47;;;;;;;26.23;13.48;;;;;;;0.87;100.00;98923.10;1764853;81;21172;-65
2020/12/24 07:32:15;;;;;;;34.65;15.78;;;;;;;0.84;100.00;98914.03;1764843;81;21311;-62
2020/12/24 07:34:43;;;;;;;28.40;15.60;;;;;;;0.84;100.00;98921.28;1761356;81;21323;-64
2020/12/24 07:37:10;;;;;;;23.30;12.13;;;;;;;0.94;100.00;98922.98;1759926;81;21244;-70
2020/12/24 07:39:38;;;;;;;25.82;12.05;;;;;;;1.06;100.00;98900.30;1759755;81;21361;-67
2020/12/24 07:42:06;;;;;;;22.17;11.55;;;;;;;1.16;100.00;98918.53;1759986;81;21118;-74
2020/12/24 07:44:33;;;;;;;22.77;11.40;;;;;;;1.27;100.00;98924.98;1759167;81;21162;-70
2020/12/24 07:47:03;;;;;;;22.42;12.53;;;;;;;1.34;100.00;98914.30;1759515;81;21162;-69
2020/12/24 07:49:31;;;;;;;23.30;12.45;;;;;;;1.40;100.00;98912.44;1759355;81;21161;-68
2020/12/24 07:51:59;;;;;;;21.00;9.78;;;;;;;1.45;100.00;98908.05;1759298;81;21157;-71
2020/12/24 07:54:28;;;;;;;17.05;9.48;;;;;;;1.50;100.00;98915.88;1759312;81;21189;-68
2020/12/24 07:56:57;;;;;;;20.68;10.93;;;;;;;1.47;100.00;98910.25;1759259;81;21162;-64
2020/12/24 07:59:25;;;;;;;20.72;10.72;;;;;;;1.54;100.00;98920.72;1763572;81;21162;-64
2020/12/24 08:02:04;;;;;;;19.85;11.03;;;;;;;1.50;100.00;98924.39;1762839;81;21153;-65
2020/12/24 08:04:33;;;;;;;21.95;10.43;;;;;;;1.52;100.00;98926.58;1764619;81;21299;-64
2020/12/24 08:07:02;;;;;;;19.82;10.10;;;;;;;1.60;100.00;98932.02;1764500;81;21125;-65
2020/12/24 08:09:32;;;;;;;24.00;11.15;;;;;;;1.63;100.00;98930.91;1762868;81;21153;-64
2020/12/24 08:12:00;;;;;;;17.73;9.48;;;;;;;1.61;100.00;98933.78;1759380;81;21153;-64
2020/12/24 08:14:30;;;;;;;21.05;9.55;;;;;;;1.61;100.00;98927.83;1759140;81;21568;-64
2020/12/24 08:17:03;;;;;;;23.00;10.50;;;;;;;1.58;100.00;98936.56;1759351;81;21158;-65
2020/12/24 08:19:45;;;;;;;25.17;12.43;;;;;;;1.54;100.00;98929.62;1754363;81;21169;-65
2020/12/24 08:22:21;;;;;;;34.92;16.67;;;;;;;1.52;100.00;98935.48;1759162;81;21287;-64
2020/12/24 08:24:51;;;;;;;23.87;11.68;;;;;;;1.61;100.00;98936.73;1759248;81;21185;-64
2020/12/24 08:27:20;;;;;;;23.45;11.60;;;;;;;1.65;100.00;98908.08;1759234;81;21173;-64
2020/12/24 08:29:48;;;;;;;26.20;13.20;;;;;;;1.62;100.00;98934.65;1759104;81;21153;-64
2020/12/24 08:32:16;;;;;;;25.10;13.35;;;;;;;1.59;100.00;98920.12;1759299;81;21305;-63
2020/12/24 08:34:44;;;;;;;27.77;14.98;;;;;;;1.60;100.00;98920.98;1730023;81;21142;-63
2020/12/24 08:37:12;;;;;;;26.93;14.60;;;;;;;1.66;100.00;98920.02;1759226;81;21161;-63
2020/12/24 08:39:39;;;;;;;30.02;16.35;;;;;;;1.73;100.00;98919.08;1759164;81;21185;-63
2020/12/24 08:42:11;;;;;;;28.52;15.03;;;;;;;1.78;100.00;98900.22;1759157;81;21173;-63
2020/12/24 08:44:38;;;;;;;31.68;15.25;;;;;;;1.77;99.54;98899.72;1729903;81;21337;-63
2020/12/24 08:47:09;;;;;;;28.85;15.15;;;;;;;1.73;99.26;98904.20;1759348;81;21299;-63
2020/12/24 08:49:45;;;;;;;30.90;16.05;;;;;;;1.71;99.37;98893.11;1762673;81;21185;-63
2020/12/24 08:52:22;;;;;;;30.55;16.50;;;;;;;1.74;99.36;98896.64;1764359;81;21296;-63
2020/12/24 08:55:02;;;;;;;32.17;15.98;;;;;;;1.74;99.03;98889.02;1764081;81;21313;-63
2020/12/24 08:57:30;;;;;;;23.98;12.43;;;;;;;1.66;98.72;98876.77;1764390;81;21150;-63
2020/12/24 09:00:08;;;;;;;22.45;12.47;;;;;;;1.51;98.79;98870.18;1764580;81;21556;-63
2020/12/24 09:02:37;;;;;;;22.15;11.50;;;;;;;1.37;98.96;98877.57;1708494;83;21180;-63
2020/12/24 09:05:06;;;;;;;23.00;12.00;;;;;;;1.25;99.45;98880.44;1699373;82;21601;-64
2020/12/24 09:07:38;;;;;;;24.20;13.15;;;;;;;1.13;99.66;98863.75;1747112;82;21699;-64
2020/12/24 09:10:10;;;;;;;30.97;14.95;;;;;;;1.13;100.00;98868.43;1741532;81;21255;-63
2020/12/24 09:12:43;;;;;;;25.88;14.00;;;;;;;1.16;100.00;98871.11;1747719;82;21158;-63
2020/12/24 09:15:15;;;;;;;26.95;13.90;;;;;;;1.20;100.00;98870.46;1747176;81;21166;-63
2020/12/24 09:17:51;;;;;;;23.57;13.50;;;;;;;1.22;99.92;98880.68;1745054;81;21553;-63
2020/12/24 09:20:25;;;;;;;24.25;13.22;;;;;;;1.18;99.89;98861.02;1746012;82;21170;-63
2020/12/24 09:23:03;;;;;;;23.65;13.80;;;;;;;1.18;100.00;98850.45;1746094;82;21671;-63
2020/12/24 09:25:43;;;;;;;27.07;13.78;;;;;;;1.20;100.00;98858.16;1746042;82;21605;-63
2020/12/24 09:28:24;;;;;;;25.17;13.83;;;;;;;1.30;100.00;98853.97;1698729;84;21181;-63
2020/12/24 09:30:57;;;;;;;24.80;12.58;;;;;;;1.29;99.67;98857.29;1734403;82;21158;-64
2020/12/24 09:33:27;;;;;;;26.30;14.98;;;;;;;1.29;99.62;98847.98;1740026;82;21162;-63
2020/12/24 09:35:55;;;;;;;29.10;14.28;;;;;;;1.26;99.74;98852.07;1750812;82;21166;-63
2020/12/24 09:38:23;;;;;;;19.77;11.57;;;;;;;1.26;99.82;98852.07;1751227;82;21328;-63
2020/12/24 09:40:51;;;;;;;20.25;11.95;;;;;;;1.12;99.87;98849.28;1749911;81;21138;-63
2020/12/24 09:43:18;;;;;;;19.27;11.60;;;;;;;1.05;100.00;98841.39;1750859;82;21296;-63
2020/12/24 09:45:46;;;;;;;25.57;13.88;;;;;;;1.03;100.00;98835.36;1746056;82;21296;-62
2020/12/24 09:48:14;;;;;;;21.93;14.13;;;;;;;1.08;100.00;98839.39;1745900;81;21182;-62
2020/12/24 09:50:41;;;;;;;22.13;11.80;;;;;;;1.18;100.00;98833.92;1745885;81;21281;-63
2020/12/24 09:53:09;;;;;;;22.90;12.35;;;;;;;1.17;100.00;98816.95;1745974;82;21307;-65
2020/12/24 09:55:37;;;;;;;22.90;12.98;;;;;;;1.12;100.00;98814.98;1745727;82;21166;-60
2020/12/24 09:58:04;;;;;;;17.27;10.60;;;;;;;1.11;100.00;98810.70;1745952;82;21170;-60
2020/12/24 10:00:32;;;;;;;20.30;11.50;;;;;;;1.15;100.00;98802.44;1745886;82;21151;-65
2020/12/24 10:02:59;;;;;;;20.52;11.65;;;;;;;1.19;100.00;98796.27;1749120;81;21133;-73
2020/12/24 10:05:28;;;;;;;18.37;10.85;;;;;;;1.20;100.00;98780.64;1739210;82;21722;-68
2020/12/24 10:07:58;;;;;;;16.15;10.30;;;;;;;1.11;100.00;98794.19;1739197;82;21163;-73
2020/12/24 10:10:25;;;;;;;18.62;11.15;;;;;;;1.02;100.00;98794.25;1738647;82;21710;-70
2020/12/24 10:12:54;;;;;;;17.55;10.93;;;;;;;1.02;100.00;98795.52;1737875;82;21226;-71
2020/12/24 10:15:22;;;;;;;17.73;11.60;;;;;;;1.01;100.00;98787.41;1738179;82;21226;-70
2020/12/24 10:17:50;;;;;;;21.02;12.07;;;;;;;1.06;100.00;98782.13;1738225;82;21315;-68
2020/12/24 10:20:18;;;;;;;24.00;12.37;;;;;;;1.07;100.00;98769.05;1738030;82;21218;-74
2020/12/24 10:22:45;;;;;;;19.77;12.50;;;;;;;1.07;100.00;98784.30;1737934;82;21351;-73
2020/12/24 10:25:13;;;;;;;19.12;11.12;;;;;;;1.02;100.00;98773.92;1738159;82;21222;-69
2020/12/24 10:27:42;;;;;;;21.00;12.25;;;;;;;1.02;100.00;98782.81;1739440;82;21760;-69
2020/12/24 10:30:09;;;;;;;16.87;10.75;;;;;;;0.96;100.00;98757.11;1739353;82;21158;-66
2020/12/24 10:32:40;;;;;;;18.87;10.65;;;;;;;0.94;100.00;98756.20;1739039;82;21760;-70
2020/12/24 10:35:07;;;;;;;20.55;11.50;;;;;;;0.97;100.00;98757.59;1739311;82;21182;-70
2020/12/24 10:37:35;;;;;;;16.12;9.15;;;;;;;0.94;100.00;98766.36;1739275;82;21151;-75
2020/12/24 10:40:05;;;;;;;18.27;9.45;;;;;;;0.90;100.00;98747.95;1739335;82;21170;-69
2020/12/24 10:42:33;;;;;;;22.45;12.30;;;;;;;0.89;100.00;98750.41;1739489;82;21230;-75
2020/12/24 10:45:02;;;;;;;20.10;12.07;;;;;;;0.86;100.00;98746.06;1739465;82;21593;-76
2020/12/24 10:47:31;;;;;;;16.70;10.78;;;;;;;0.87;100.00;98745.28;1739620;82;21146;-66
2020/12/24 10:49:59;;;;;;;22.27;11.50;;;;;;;0.89;100.00;98733.52;1739687;82;21597;-75
2020/12/24 10:52:27;;;;;;;24.77;13.32;;;;;;;0.91;100.00;98749.67;1739276;82;21177;-70
2020/12/24 10:54:57;;;;;;;21.80;11.80;;;;;;;0.93;100.00;98749.35;1661284;85;21326;-69
2020/12/24 10:57:24;;;;;;;24.05;10.23;;;;;;;0.92;100.00;98717.55;1739570;82;21573;-72
2020/12/24 10:59:52;;;;;;;24.27;13.13;;;;;;;0.91;100.00;98738.25;1739720;82;21135;-67
2020/12/24 11:02:20;;;;;;;22.80;11.55;;;;;;;0.87;100.00;98744.01;1739337;82;21546;-72
2020/12/24 11:04:47;;;;;;;20.52;12.10;;;;;;;0.83;100.00;98725.60;1747299;81;21640;-69
2020/12/24 11:07:15;;;;;;;19.73;11.40;;;;;;;0.87;100.00;98728.77;1751045;82;21162;-70
2020/12/24 11:09:44;;;;;;;21.33;12.10;;;;;;;0.88;100.00;98724.55;1751830;82;21166;-65
2020/12/24 11:12:12;;;;;;;17.32;10.78;;;;;;;0.87;100.00;98718.61;1752028;82;21280;-70
2020/12/24 11:14:39;;;;;;;22.02;13.30;;;;;;;0.88;100.00;98707.63;1751892;82;21304;-69
2020/12/24 11:17:07;;;;;;;25.40;11.97;;;;;;;0.85;100.00;98709.62;1751184;82;21122;-69
2020/12/24 11:19:34;;;;;;;19.32;11.25;;;;;;;0.86;100.00;98713.90;1751247;82;21553;-66
2020/12/24 11:22:02;;;;;;;21.75;10.55;;;;;;;0.85;100.00;98693.53;1751138;82;21154;-72
2020/12/24 11:24:30;;;;;;;23.15;11.93;;;;;;;0.82;100.00;98701.02;1751332;82;21155;-67
2020/12/24 11:26:58;;;;;;;23.70;12.15;;;;;;;0.78;100.00;98695.31;1751503;82;21162;-73
2020/12/24 11:29:26;;;;;;;21.02;12.23;;;;;;;0.74;100.00;98685.44;1751187;82;21158;-71
2020/12/24 11:31:59;;;;;;;22.50;13.13;;;;;;;0.80;100.00;98687.38;1751271;82;21284;-69
2020/12/24 11:34:28;;;;;;;22.13;11.60;;;;;;;0.86;100.00;98692.71;1750699;82;21170;-71